sensor_id;sensor_type;location;lat;lon;timestamp;P1;durP1;ratioP1;P2;durP2;ratioP2
59649;SDS011;46162;57.568;25.814;2023-09-19T00:00:47;13.32;;;4.82;;
59649;SDS011;46162;57.568;25.814;2023-09-19T00:03:16;8.38;;;4.75;;
59649;SDS011;46162;57.568;25.814;2023-09-19T00:05:45;11.82;;;4.15;;
59649;SDS011;46162;57.568;25.814;2023-09-19T00:08:14;8.32;;;3.70;;
59649;SDS011;46162;57.568;25.814;2023-09-19T00:10:43;8.45;;;3.92;;
59649;SDS011;46162;57.568;25.814;2023-09-19T00:13:14;6.45;;;3.80;;
59649;SDS011;46162;57.568;25.814;2023-09-19T00:15:43;6.97;;;4.20;;
59649;SDS011;46162;57.568;25.814;2023-09-19T00:18:16;8.55;;;3.85;;
59649;SDS011;46162;57.568;25.814;2023-09-19T00:20:47;9.02;;;4.35;;
59649;SDS011;46162;57.568;25.814;2023-09-19T00:23:17;8.02;;;3.95;;
59649;SDS011;46162;57.568;25.814;2023-09-19T00:25:46;7.32;;;4.05;;
59649;SDS011;46162;57.568;25.814;2023-09-19T00:28:17;8.80;;;3.83;;
59649;SDS011;46162;57.568;25.814;2023-09-19T00:30:47;6.85;;;3.72;;
59649;SDS011;46162;57.568;25.814;2023-09-19T00:33:18;9.43;;;4.28;;
59649;SDS011;46162;57.568;25.814;2023-09-19T00:35:47;13.40;;;3.92;;
59649;SDS011;46162;57.568;25.814;2023-09-19T00:38:16;9.45;;;3.83;;
59649;SDS011;46162;57.568;25.814;2023-09-19T00:40:48;8.10;;;3.92;;
59649;SDS011;46162;57.568;25.814;2023-09-19T00:43:19;7.38;;;3.83;;
59649;SDS011;46162;57.568;25.814;2023-09-19T00:46:02;7.90;;;4.15;;
59649;SDS011;46162;57.568;25.814;2023-09-19T00:48:35;8.95;;;4.93;;
59649;SDS011;46162;57.568;25.814;2023-09-19T00:51:11;8.15;;;4.72;;
59649;SDS011;46162;57.568;25.814;2023-09-19T00:53:41;8.82;;;4.82;;
59649;SDS011;46162;57.568;25.814;2023-09-19T00:56:13;11.65;;;5.70;;
59649;SDS011;46162;57.568;25.814;2023-09-19T00:58:47;12.77;;;6.20;;
59649;SDS011;46162;57.568;25.814;2023-09-19T01:01:16;11.18;;;5.63;;
59649;SDS011;46162;57.568;25.814;2023-09-19T01:03:46;12.77;;;6.60;;
59649;SDS011;46162;57.568;25.814;2023-09-19T01:06:15;9.95;;;6.28;;
59649;SDS011;46162;57.568;25.814;2023-09-19T01:08:44;14.10;;;6.68;;
59649;SDS011;46162;57.568;25.814;2023-09-19T01:11:14;14.68;;;7.70;;
59649;SDS011;46162;57.568;25.814;2023-09-19T01:13:55;15.15;;;7.55;;
59649;SDS011;46162;57.568;25.814;2023-09-19T01:16:31;11.00;;;7.05;;
59649;SDS011;46162;57.568;25.814;2023-09-19T01:19:22;12.20;;;7.43;;
59649;SDS011;46162;57.568;25.814;2023-09-19T01:22:05;11.90;;;8.57;;
59649;SDS011;46162;57.568;25.814;2023-09-19T01:28:05;13.40;;;8.40;;
59649;SDS011;46162;57.568;25.814;2023-09-19T01:30:43;13.00;;;8.60;;
59649;SDS011;46162;57.568;25.814;2023-09-19T01:33:14;14.40;;;8.80;;
59649;SDS011;46162;57.568;25.814;2023-09-19T01:35:45;12.20;;;8.50;;
59649;SDS011;46162;57.568;25.814;2023-09-19T01:38:14;13.95;;;9.35;;
59649;SDS011;46162;57.568;25.814;2023-09-19T01:40:43;16.75;;;8.32;;
59649;SDS011;46162;57.568;25.814;2023-09-19T01:43:20;13.07;;;9.30;;
59649;SDS011;46162;57.568;25.814;2023-09-19T01:45:58;13.18;;;9.65;;
59649;SDS011;46162;57.568;25.814;2023-09-19T01:48:36;16.50;;;10.35;;
59649;SDS011;46162;57.568;25.814;2023-09-19T01:51:10;14.32;;;9.77;;
59649;SDS011;46162;57.568;25.814;2023-09-19T01:53:44;16.60;;;11.10;;
59649;SDS011;46162;57.568;25.814;2023-09-19T01:56:21;18.30;;;11.43;;
59649;SDS011;46162;57.568;25.814;2023-09-19T01:58:53;16.17;;;11.82;;
59649;SDS011;46162;57.568;25.814;2023-09-19T02:01:27;20.10;;;12.60;;
59649;SDS011;46162;57.568;25.814;2023-09-19T02:03:57;18.30;;;13.82;;
59649;SDS011;46162;57.568;25.814;2023-09-19T02:06:26;21.83;;;13.48;;
59649;SDS011;46162;57.568;25.814;2023-09-19T02:08:55;25.17;;;14.30;;
59649;SDS011;46162;57.568;25.814;2023-09-19T02:11:24;28.63;;;15.55;;
59649;SDS011;46162;57.568;25.814;2023-09-19T02:13:52;28.73;;;18.05;;
59649;SDS011;46162;57.568;25.814;2023-09-19T02:16:21;30.05;;;18.80;;
59649;SDS011;46162;57.568;25.814;2023-09-19T02:18:52;29.13;;;17.55;;
59649;SDS011;46162;57.568;25.814;2023-09-19T02:21:20;29.53;;;18.20;;
59649;SDS011;46162;57.568;25.814;2023-09-19T02:23:49;28.95;;;18.73;;
59649;SDS011;46162;57.568;25.814;2023-09-19T02:26:18;31.13;;;19.00;;
59649;SDS011;46162;57.568;25.814;2023-09-19T02:28:47;26.95;;;18.15;;
59649;SDS011;46162;57.568;25.814;2023-09-19T02:31:16;30.13;;;18.52;;
59649;SDS011;46162;57.568;25.814;2023-09-19T02:33:45;30.88;;;20.13;;
59649;SDS011;46162;57.568;25.814;2023-09-19T02:36:15;28.88;;;19.33;;
59649;SDS011;46162;57.568;25.814;2023-09-19T02:38:44;27.48;;;18.33;;
59649;SDS011;46162;57.568;25.814;2023-09-19T02:41:14;32.90;;;20.55;;
59649;SDS011;46162;57.568;25.814;2023-09-19T02:43:43;29.83;;;19.33;;
59649;SDS011;46162;57.568;25.814;2023-09-19T02:46:12;29.95;;;19.52;;
59649;SDS011;46162;57.568;25.814;2023-09-19T02:48:41;31.23;;;19.23;;
59649;SDS011;46162;57.568;25.814;2023-09-19T02:51:10;28.42;;;19.00;;
59649;SDS011;46162;57.568;25.814;2023-09-19T02:53:40;31.80;;;19.48;;
59649;SDS011;46162;57.568;25.814;2023-09-19T02:56:09;30.75;;;19.33;;
59649;SDS011;46162;57.568;25.814;2023-09-19T02:58:41;28.48;;;18.92;;
59649;SDS011;46162;57.568;25.814;2023-09-19T03:01:10;31.52;;;20.48;;
59649;SDS011;46162;57.568;25.814;2023-09-19T03:03:40;27.83;;;18.63;;
59649;SDS011;46162;57.568;25.814;2023-09-19T03:06:09;31.00;;;18.98;;
59649;SDS011;46162;57.568;25.814;2023-09-19T03:08:42;26.35;;;18.52;;
59649;SDS011;46162;57.568;25.814;2023-09-19T03:11:12;31.55;;;19.33;;
59649;SDS011;46162;57.568;25.814;2023-09-19T03:13:45;29.05;;;18.65;;
59649;SDS011;46162;57.568;25.814;2023-09-19T03:16:14;29.92;;;18.73;;
59649;SDS011;46162;57.568;25.814;2023-09-19T03:18:44;27.13;;;16.73;;
59649;SDS011;46162;57.568;25.814;2023-09-19T03:21:15;26.08;;;17.38;;
59649;SDS011;46162;57.568;25.814;2023-09-19T03:23:47;31.98;;;19.40;;
59649;SDS011;46162;57.568;25.814;2023-09-19T03:26:16;25.95;;;17.85;;
59649;SDS011;46162;57.568;25.814;2023-09-19T03:28:47;24.38;;;17.08;;
59649;SDS011;46162;57.568;25.814;2023-09-19T03:31:16;25.52;;;17.65;;
59649;SDS011;46162;57.568;25.814;2023-09-19T03:33:46;26.48;;;18.45;;
59649;SDS011;46162;57.568;25.814;2023-09-19T03:36:14;24.50;;;17.90;;
59649;SDS011;46162;57.568;25.814;2023-09-19T03:38:43;32.58;;;19.75;;
59649;SDS011;46162;57.568;25.814;2023-09-19T03:41:13;27.27;;;19.38;;
59649;SDS011;46162;57.568;25.814;2023-09-19T03:43:48;24.92;;;17.85;;
59649;SDS011;46162;57.568;25.814;2023-09-19T03:46:17;26.73;;;18.95;;
59649;SDS011;46162;57.568;25.814;2023-09-19T03:48:48;24.92;;;17.88;;
59649;SDS011;46162;57.568;25.814;2023-09-19T03:51:17;27.70;;;18.85;;
59649;SDS011;46162;57.568;25.814;2023-09-19T03:53:46;35.35;;;20.88;;
59649;SDS011;46162;57.568;25.814;2023-09-19T03:56:17;38.28;;;20.42;;
59649;SDS011;46162;57.568;25.814;2023-09-19T03:58:46;27.90;;;19.77;;
59649;SDS011;46162;57.568;25.814;2023-09-19T04:01:16;28.05;;;19.13;;
59649;SDS011;46162;57.568;25.814;2023-09-19T04:03:45;30.10;;;19.48;;
59649;SDS011;46162;57.568;25.814;2023-09-19T04:06:15;25.75;;;18.65;;
59649;SDS011;46162;57.568;25.814;2023-09-19T04:08:44;29.38;;;20.27;;
59649;SDS011;46162;57.568;25.814;2023-09-19T04:11:14;26.85;;;19.58;;
59649;SDS011;46162;57.568;25.814;2023-09-19T04:13:46;25.73;;;18.45;;
59649;SDS011;46162;57.568;25.814;2023-09-19T04:18:44;33.78;;;19.80;;
59649;SDS011;46162;57.568;25.814;2023-09-19T04:21:13;31.05;;;20.55;;
59649;SDS011;46162;57.568;25.814;2023-09-19T04:23:42;26.65;;;20.23;;
59649;SDS011;46162;57.568;25.814;2023-09-19T04:26:11;30.13;;;21.20;;
59649;SDS011;46162;57.568;25.814;2023-09-19T04:28:40;28.33;;;20.05;;
59649;SDS011;46162;57.568;25.814;2023-09-19T04:31:10;33.63;;;21.90;;
59649;SDS011;46162;57.568;25.814;2023-09-19T04:33:41;30.25;;;21.33;;
59649;SDS011;46162;57.568;25.814;2023-09-19T04:36:10;29.55;;;19.75;;
59649;SDS011;46162;57.568;25.814;2023-09-19T04:39:00;32.42;;;22.02;;
59649;SDS011;46162;57.568;25.814;2023-09-19T04:41:31;26.75;;;20.40;;
59649;SDS011;46162;57.568;25.814;2023-09-19T04:44:00;27.63;;;20.55;;
59649;SDS011;46162;57.568;25.814;2023-09-19T04:46:32;30.73;;;21.08;;
59649;SDS011;46162;57.568;25.814;2023-09-19T04:49:00;26.83;;;20.98;;
59649;SDS011;46162;57.568;25.814;2023-09-19T04:51:30;29.63;;;22.15;;
59649;SDS011;46162;57.568;25.814;2023-09-19T04:54:01;29.95;;;22.55;;
59649;SDS011;46162;57.568;25.814;2023-09-19T04:56:30;27.13;;;19.33;;
59649;SDS011;46162;57.568;25.814;2023-09-19T04:58:59;26.13;;;19.80;;
59649;SDS011;46162;57.568;25.814;2023-09-19T05:01:28;26.73;;;20.10;;
59649;SDS011;46162;57.568;25.814;2023-09-19T05:03:58;23.95;;;18.27;;
59649;SDS011;46162;57.568;25.814;2023-09-19T05:06:26;26.83;;;19.93;;
59649;SDS011;46162;57.568;25.814;2023-09-19T05:08:55;26.83;;;19.77;;
59649;SDS011;46162;57.568;25.814;2023-09-19T05:11:24;29.83;;;20.35;;
59649;SDS011;46162;57.568;25.814;2023-09-19T05:13:53;29.23;;;21.02;;
59649;SDS011;46162;57.568;25.814;2023-09-19T05:16:22;30.70;;;21.35;;
59649;SDS011;46162;57.568;25.814;2023-09-19T05:18:50;28.00;;;21.20;;
59649;SDS011;46162;57.568;25.814;2023-09-19T05:21:20;27.27;;;21.33;;
59649;SDS011;46162;57.568;25.814;2023-09-19T05:23:51;26.27;;;20.00;;
59649;SDS011;46162;57.568;25.814;2023-09-19T05:26:20;27.13;;;21.30;;
59649;SDS011;46162;57.568;25.814;2023-09-19T05:28:49;26.10;;;20.30;;
59649;SDS011;46162;57.568;25.814;2023-09-19T05:31:18;27.67;;;20.75;;
59649;SDS011;46162;57.568;25.814;2023-09-19T05:33:49;28.45;;;21.67;;
59649;SDS011;46162;57.568;25.814;2023-09-19T05:36:18;27.30;;;21.73;;
59649;SDS011;46162;57.568;25.814;2023-09-19T05:38:48;29.45;;;22.45;;
59649;SDS011;46162;57.568;25.814;2023-09-19T05:41:18;29.83;;;23.13;;
59649;SDS011;46162;57.568;25.814;2023-09-19T05:43:48;27.13;;;22.55;;
59649;SDS011;46162;57.568;25.814;2023-09-19T05:46:18;29.20;;;22.48;;
59649;SDS011;46162;57.568;25.814;2023-09-19T05:48:47;26.88;;;20.95;;
59649;SDS011;46162;57.568;25.814;2023-09-19T05:51:16;25.42;;;20.33;;
59649;SDS011;46162;57.568;25.814;2023-09-19T05:53:48;26.73;;;21.17;;
59649;SDS011;46162;57.568;25.814;2023-09-19T05:56:17;31.73;;;21.40;;
59649;SDS011;46162;57.568;25.814;2023-09-19T05:58:46;28.75;;;22.95;;
59649;SDS011;46162;57.568;25.814;2023-09-19T06:01:16;28.30;;;21.48;;
59649;SDS011;46162;57.568;25.814;2023-09-19T06:03:45;26.92;;;21.10;;
59649;SDS011;46162;57.568;25.814;2023-09-19T06:06:13;25.50;;;20.63;;
59649;SDS011;46162;57.568;25.814;2023-09-19T06:08:42;25.02;;;19.27;;
59649;SDS011;46162;57.568;25.814;2023-09-19T06:11:14;25.83;;;18.13;;
59649;SDS011;46162;57.568;25.814;2023-09-19T06:13:42;23.63;;;19.35;;
59649;SDS011;46162;57.568;25.814;2023-09-19T06:16:14;23.65;;;20.27;;
59649;SDS011;46162;57.568;25.814;2023-09-19T06:18:43;23.80;;;19.25;;
59649;SDS011;46162;57.568;25.814;2023-09-19T06:21:12;24.92;;;19.58;;
59649;SDS011;46162;57.568;25.814;2023-09-19T06:23:44;23.70;;;19.30;;
59649;SDS011;46162;57.568;25.814;2023-09-19T06:26:14;24.88;;;18.85;;
59649;SDS011;46162;57.568;25.814;2023-09-19T06:28:43;24.85;;;19.75;;
59649;SDS011;46162;57.568;25.814;2023-09-19T06:31:11;26.90;;;19.52;;
59649;SDS011;46162;57.568;25.814;2023-09-19T06:33:40;24.98;;;20.67;;
59649;SDS011;46162;57.568;25.814;2023-09-19T06:36:10;24.02;;;18.90;;
59649;SDS011;46162;57.568;25.814;2023-09-19T06:38:39;22.15;;;18.95;;
59649;SDS011;46162;57.568;25.814;2023-09-19T06:41:08;23.98;;;19.13;;
59649;SDS011;46162;57.568;25.814;2023-09-19T06:43:38;22.05;;;18.25;;
59649;SDS011;46162;57.568;25.814;2023-09-19T06:46:08;23.85;;;18.60;;
59649;SDS011;46162;57.568;25.814;2023-09-19T06:48:36;20.58;;;18.05;;
59649;SDS011;46162;57.568;25.814;2023-09-19T06:51:06;22.80;;;17.95;;
59649;SDS011;46162;57.568;25.814;2023-09-19T06:53:36;29.85;;;18.40;;
59649;SDS011;46162;57.568;25.814;2023-09-19T06:56:07;22.02;;;17.42;;
59649;SDS011;46162;57.568;25.814;2023-09-19T06:58:36;28.90;;;18.30;;
59649;SDS011;46162;57.568;25.814;2023-09-19T07:01:06;24.33;;;17.55;;
59649;SDS011;46162;57.568;25.814;2023-09-19T07:03:35;22.15;;;17.95;;
59649;SDS011;46162;57.568;25.814;2023-09-19T07:06:04;21.33;;;16.98;;
59649;SDS011;46162;57.568;25.814;2023-09-19T07:08:35;20.75;;;17.73;;
59649;SDS011;46162;57.568;25.814;2023-09-19T07:11:05;24.42;;;17.60;;
59649;SDS011;46162;57.568;25.814;2023-09-19T07:13:34;25.00;;;16.88;;
59649;SDS011;46162;57.568;25.814;2023-09-19T07:16:04;24.23;;;17.85;;
59649;SDS011;46162;57.568;25.814;2023-09-19T07:18:34;19.02;;;16.77;;
59649;SDS011;46162;57.568;25.814;2023-09-19T07:21:03;19.52;;;16.60;;
59649;SDS011;46162;57.568;25.814;2023-09-19T07:23:33;21.33;;;16.42;;
59649;SDS011;46162;57.568;25.814;2023-09-19T07:26:02;18.27;;;15.45;;
59649;SDS011;46162;57.568;25.814;2023-09-19T07:28:32;22.65;;;17.27;;
59649;SDS011;46162;57.568;25.814;2023-09-19T07:31:02;25.30;;;17.40;;
59649;SDS011;46162;57.568;25.814;2023-09-19T07:33:31;19.37;;;16.23;;
59649;SDS011;46162;57.568;25.814;2023-09-19T07:36:02;20.15;;;15.88;;
59649;SDS011;46162;57.568;25.814;2023-09-19T07:38:31;19.80;;;16.02;;
59649;SDS011;46162;57.568;25.814;2023-09-19T07:41:00;20.70;;;16.20;;
59649;SDS011;46162;57.568;25.814;2023-09-19T07:43:29;23.92;;;15.38;;
59649;SDS011;46162;57.568;25.814;2023-09-19T07:46:02;17.35;;;15.10;;
59649;SDS011;46162;57.568;25.814;2023-09-19T07:48:35;21.20;;;15.43;;
59649;SDS011;46162;57.568;25.814;2023-09-19T07:51:05;20.65;;;16.02;;
59649;SDS011;46162;57.568;25.814;2023-09-19T07:53:35;24.60;;;16.83;;
59649;SDS011;46162;57.568;25.814;2023-09-19T07:56:05;19.10;;;15.80;;
59649;SDS011;46162;57.568;25.814;2023-09-19T07:58:34;20.00;;;15.53;;
59649;SDS011;46162;57.568;25.814;2023-09-19T08:01:05;20.45;;;15.48;;
59649;SDS011;46162;57.568;25.814;2023-09-19T08:03:34;17.45;;;15.35;;
59649;SDS011;46162;57.568;25.814;2023-09-19T08:06:08;18.63;;;16.63;;
59649;SDS011;46162;57.568;25.814;2023-09-19T08:08:37;21.13;;;16.00;;
59649;SDS011;46162;57.568;25.814;2023-09-19T08:11:05;21.40;;;14.85;;
59649;SDS011;46162;57.568;25.814;2023-09-19T08:13:39;16.88;;;14.52;;
59649;SDS011;46162;57.568;25.814;2023-09-19T08:16:10;21.23;;;16.67;;
59649;SDS011;46162;57.568;25.814;2023-09-19T08:18:41;18.90;;;15.68;;
59649;SDS011;46162;57.568;25.814;2023-09-19T08:23:43;18.60;;;15.52;;
59649;SDS011;46162;57.568;25.814;2023-09-19T08:26:12;16.05;;;14.23;;
59649;SDS011;46162;57.568;25.814;2023-09-19T08:28:41;21.05;;;15.90;;
59649;SDS011;46162;57.568;25.814;2023-09-19T08:31:10;17.88;;;14.15;;
59649;SDS011;46162;57.568;25.814;2023-09-19T08:33:39;18.30;;;15.18;;
59649;SDS011;46162;57.568;25.814;2023-09-19T08:36:11;18.90;;;14.73;;
59649;SDS011;46162;57.568;25.814;2023-09-19T08:38:41;16.73;;;14.48;;
59649;SDS011;46162;57.568;25.814;2023-09-19T08:41:09;20.77;;;15.50;;
59649;SDS011;46162;57.568;25.814;2023-09-19T08:43:39;21.75;;;15.55;;
59649;SDS011;46162;57.568;25.814;2023-09-19T08:46:10;20.30;;;14.98;;
59649;SDS011;46162;57.568;25.814;2023-09-19T08:48:45;19.95;;;15.77;;
59649;SDS011;46162;57.568;25.814;2023-09-19T08:51:18;17.90;;;13.85;;
59649;SDS011;46162;57.568;25.814;2023-09-19T08:53:51;18.45;;;15.05;;
59649;SDS011;46162;57.568;25.814;2023-09-19T08:56:23;16.63;;;13.90;;
59649;SDS011;46162;57.568;25.814;2023-09-19T08:58:55;18.70;;;14.18;;
59649;SDS011;46162;57.568;25.814;2023-09-19T09:01:27;16.92;;;13.52;;
59649;SDS011;46162;57.568;25.814;2023-09-19T09:04:01;17.13;;;13.82;;
59649;SDS011;46162;57.568;25.814;2023-09-19T09:06:30;17.67;;;13.48;;
59649;SDS011;46162;57.568;25.814;2023-09-19T09:09:00;20.40;;;13.77;;
59649;SDS011;46162;57.568;25.814;2023-09-19T09:11:30;16.67;;;13.40;;
59649;SDS011;46162;57.568;25.814;2023-09-19T09:14:01;19.58;;;13.38;;
59649;SDS011;46162;57.568;25.814;2023-09-19T09:16:30;18.27;;;13.13;;
59649;SDS011;46162;57.568;25.814;2023-09-19T09:19:00;16.25;;;13.88;;
59649;SDS011;46162;57.568;25.814;2023-09-19T09:21:29;17.38;;;12.43;;
59649;SDS011;46162;57.568;25.814;2023-09-19T09:27:02;18.30;;;13.80;;
59649;SDS011;46162;57.568;25.814;2023-09-19T09:29:43;14.90;;;13.27;;
59649;SDS011;46162;57.568;25.814;2023-09-19T09:32:17;14.30;;;11.63;;
59649;SDS011;46162;57.568;25.814;2023-09-19T09:34:51;14.70;;;11.05;;
59649;SDS011;46162;57.568;25.814;2023-09-19T09:37:24;15.73;;;11.68;;
59649;SDS011;46162;57.568;25.814;2023-09-19T09:39:55;15.05;;;11.48;;
59649;SDS011;46162;57.568;25.814;2023-09-19T09:42:37;19.48;;;11.63;;
59649;SDS011;46162;57.568;25.814;2023-09-19T09:45:12;18.60;;;11.85;;
59649;SDS011;46162;57.568;25.814;2023-09-19T09:47:44;14.25;;;11.10;;
59649;SDS011;46162;57.568;25.814;2023-09-19T09:50:29;18.23;;;11.70;;
59649;SDS011;46162;57.568;25.814;2023-09-19T09:53:23;16.88;;;11.40;;
59649;SDS011;46162;57.568;25.814;2023-09-19T09:55:58;15.57;;;10.90;;
59649;SDS011;46162;57.568;25.814;2023-09-19T09:58:33;13.32;;;11.52;;
59649;SDS011;46162;57.568;25.814;2023-09-19T10:01:03;11.95;;;9.70;;
59649;SDS011;46162;57.568;25.814;2023-09-19T10:03:38;12.48;;;9.82;;
59649;SDS011;46162;57.568;25.814;2023-09-19T10:06:11;12.38;;;9.68;;
59649;SDS011;46162;57.568;25.814;2023-09-19T10:09:00;11.63;;;9.70;;
59649;SDS011;46162;57.568;25.814;2023-09-19T10:11:40;12.00;;;8.88;;
59649;SDS011;46162;57.568;25.814;2023-09-19T10:14:11;10.45;;;8.68;;
59649;SDS011;46162;57.568;25.814;2023-09-19T10:16:44;11.65;;;9.20;;
59649;SDS011;46162;57.568;25.814;2023-09-19T10:19:17;13.07;;;9.25;;
59649;SDS011;46162;57.568;25.814;2023-09-19T10:21:55;14.75;;;9.65;;
59649;SDS011;46162;57.568;25.814;2023-09-19T10:24:25;19.63;;;10.45;;
59649;SDS011;46162;57.568;25.814;2023-09-19T10:26:59;13.98;;;9.02;;
59649;SDS011;46162;57.568;25.814;2023-09-19T10:29:28;17.02;;;8.90;;
59649;SDS011;46162;57.568;25.814;2023-09-19T10:32:03;13.70;;;10.20;;
59649;SDS011;46162;57.568;25.814;2023-09-19T10:34:36;12.70;;;9.35;;
59649;SDS011;46162;57.568;25.814;2023-09-19T10:37:09;12.25;;;9.25;;
59649;SDS011;46162;57.568;25.814;2023-09-19T10:39:42;10.82;;;8.98;;
59649;SDS011;46162;57.568;25.814;2023-09-19T10:42:16;12.00;;;9.32;;
59649;SDS011;46162;57.568;25.814;2023-09-19T10:44:50;14.68;;;8.60;;
59649;SDS011;46162;57.568;25.814;2023-09-19T10:47:20;11.43;;;9.07;;
59649;SDS011;46162;57.568;25.814;2023-09-19T10:49:51;11.80;;;8.73;;
59649;SDS011;46162;57.568;25.814;2023-09-19T10:52:23;14.00;;;8.50;;
59649;SDS011;46162;57.568;25.814;2023-09-19T10:54:55;12.82;;;9.05;;
59649;SDS011;46162;57.568;25.814;2023-09-19T10:57:28;13.90;;;8.70;;
59649;SDS011;46162;57.568;25.814;2023-09-19T11:02:31;11.27;;;8.43;;
59649;SDS011;46162;57.568;25.814;2023-09-19T11:05:10;18.38;;;8.80;;
59649;SDS011;46162;57.568;25.814;2023-09-19T11:08:00;16.20;;;9.07;;
59649;SDS011;46162;57.568;25.814;2023-09-19T11:10:46;11.52;;;8.02;;
59649;SDS011;46162;57.568;25.814;2023-09-19T11:13:23;13.63;;;7.68;;
59649;SDS011;46162;57.568;25.814;2023-09-19T11:18:53;12.18;;;7.75;;
59649;SDS011;46162;57.568;25.814;2023-09-19T11:21:41;13.93;;;8.25;;
59649;SDS011;46162;57.568;25.814;2023-09-19T11:24:29;13.85;;;8.40;;
59649;SDS011;46162;57.568;25.814;2023-09-19T11:27:10;13.18;;;7.95;;
59649;SDS011;46162;57.568;25.814;2023-09-19T11:29:45;10.25;;;7.72;;
59649;SDS011;46162;57.568;25.814;2023-09-19T11:32:14;15.50;;;7.72;;
59649;SDS011;46162;57.568;25.814;2023-09-19T11:34:47;10.82;;;7.47;;
59649;SDS011;46162;57.568;25.814;2023-09-19T11:40:46;11.80;;;7.85;;
59649;SDS011;46162;57.568;25.814;2023-09-19T11:43:28;12.90;;;7.88;;
59649;SDS011;46162;57.568;25.814;2023-09-19T11:46:04;12.48;;;7.53;;
59649;SDS011;46162;57.568;25.814;2023-09-19T11:48:34;10.13;;;7.68;;
59649;SDS011;46162;57.568;25.814;2023-09-19T11:51:09;11.02;;;7.50;;
59649;SDS011;46162;57.568;25.814;2023-09-19T11:53:42;11.70;;;7.18;;
59649;SDS011;46162;57.568;25.814;2023-09-19T11:56:14;10.43;;;7.47;;
59649;SDS011;46162;57.568;25.814;2023-09-19T11:58:44;11.23;;;8.07;;
59649;SDS011;46162;57.568;25.814;2023-09-19T12:01:21;12.45;;;7.57;;
59649;SDS011;46162;57.568;25.814;2023-09-19T12:03:52;10.35;;;7.50;;
59649;SDS011;46162;57.568;25.814;2023-09-19T12:06:24;11.10;;;7.22;;
59649;SDS011;46162;57.568;25.814;2023-09-19T12:08:53;9.07;;;7.13;;
59649;SDS011;46162;57.568;25.814;2023-09-19T12:11:27;13.57;;;7.05;;
59649;SDS011;46162;57.568;25.814;2023-09-19T12:13:59;9.60;;;7.03;;
59649;SDS011;46162;57.568;25.814;2023-09-19T12:16:28;16.90;;;7.65;;
59649;SDS011;46162;57.568;25.814;2023-09-19T12:18:57;12.57;;;7.38;;
59649;SDS011;46162;57.568;25.814;2023-09-19T12:21:54;14.35;;;7.57;;
59649;SDS011;46162;57.568;25.814;2023-09-19T12:24:25;9.88;;;7.78;;
59649;SDS011;46162;57.568;25.814;2023-09-19T12:27:02;14.70;;;6.97;;
59649;SDS011;46162;57.568;25.814;2023-09-19T12:29:46;13.80;;;7.40;;
59649;SDS011;46162;57.568;25.814;2023-09-19T12:32:16;11.43;;;7.15;;
59649;SDS011;46162;57.568;25.814;2023-09-19T12:34:51;10.73;;;7.28;;
59649;SDS011;46162;57.568;25.814;2023-09-19T12:37:22;14.48;;;7.15;;
59649;SDS011;46162;57.568;25.814;2023-09-19T12:40:03;12.98;;;7.45;;
59649;SDS011;46162;57.568;25.814;2023-09-19T12:42:45;16.95;;;7.32;;
59649;SDS011;46162;57.568;25.814;2023-09-19T12:45:15;11.23;;;7.88;;
59649;SDS011;46162;57.568;25.814;2023-09-19T12:51:04;14.70;;;7.78;;
59649;SDS011;46162;57.568;25.814;2023-09-19T12:53:35;12.23;;;7.00;;
59649;SDS011;46162;57.568;25.814;2023-09-19T12:56:08;12.95;;;7.05;;
59649;SDS011;46162;57.568;25.814;2023-09-19T12:58:53;12.65;;;7.28;;
59649;SDS011;46162;57.568;25.814;2023-09-19T13:01:23;14.52;;;7.72;;
59649;SDS011;46162;57.568;25.814;2023-09-19T13:04:11;12.52;;;7.15;;
59649;SDS011;46162;57.568;25.814;2023-09-19T13:06:48;15.50;;;6.05;;
59649;SDS011;46162;57.568;25.814;2023-09-19T13:09:19;10.55;;;7.25;;
59649;SDS011;46162;57.568;25.814;2023-09-19T13:11:48;9.93;;;6.60;;
59649;SDS011;46162;57.568;25.814;2023-09-19T13:14:20;11.38;;;7.18;;
59649;SDS011;46162;57.568;25.814;2023-09-19T13:16:57;10.75;;;7.18;;
59649;SDS011;46162;57.568;25.814;2023-09-19T13:19:37;9.68;;;6.95;;
59649;SDS011;46162;57.568;25.814;2023-09-19T13:25:09;10.38;;;6.82;;
59649;SDS011;46162;57.568;25.814;2023-09-19T13:27:41;9.07;;;6.28;;
59649;SDS011;46162;57.568;25.814;2023-09-19T13:30:13;14.77;;;7.00;;
59649;SDS011;46162;57.568;25.814;2023-09-19T13:35:10;17.65;;;6.70;;
59649;SDS011;46162;57.568;25.814;2023-09-19T13:37:39;13.27;;;6.72;;
59649;SDS011;46162;57.568;25.814;2023-09-19T13:40:10;10.60;;;6.75;;
59649;SDS011;46162;57.568;25.814;2023-09-19T13:42:40;12.35;;;6.45;;
59649;SDS011;46162;57.568;25.814;2023-09-19T13:45:09;13.20;;;6.38;;
59649;SDS011;46162;57.568;25.814;2023-09-19T13:47:40;12.63;;;6.93;;
59649;SDS011;46162;57.568;25.814;2023-09-19T13:52:38;11.65;;;7.13;;
59649;SDS011;46162;57.568;25.814;2023-09-19T13:55:08;9.13;;;6.13;;
59649;SDS011;46162;57.568;25.814;2023-09-19T13:57:37;12.77;;;6.53;;
59649;SDS011;46162;57.568;25.814;2023-09-19T14:00:06;11.65;;;6.78;;
59649;SDS011;46162;57.568;25.814;2023-09-19T14:02:41;13.02;;;6.90;;
59649;SDS011;46162;57.568;25.814;2023-09-19T14:05:13;13.82;;;6.95;;
59649;SDS011;46162;57.568;25.814;2023-09-19T14:07:43;12.23;;;6.90;;
59649;SDS011;46162;57.568;25.814;2023-09-19T14:10:12;12.98;;;7.32;;
59649;SDS011;46162;57.568;25.814;2023-09-19T14:12:42;10.82;;;7.05;;
59649;SDS011;46162;57.568;25.814;2023-09-19T14:15:12;15.45;;;7.45;;
59649;SDS011;46162;57.568;25.814;2023-09-19T14:17:43;13.25;;;6.85;;
59649;SDS011;46162;57.568;25.814;2023-09-19T14:20:12;13.73;;;7.65;;
59649;SDS011;46162;57.568;25.814;2023-09-19T14:22:42;23.67;;;7.53;;
59649;SDS011;46162;57.568;25.814;2023-09-19T14:25:11;18.40;;;7.82;;
59649;SDS011;46162;57.568;25.814;2023-09-19T14:27:39;12.50;;;7.32;;
59649;SDS011;46162;57.568;25.814;2023-09-19T14:30:08;15.13;;;7.30;;
59649;SDS011;46162;57.568;25.814;2023-09-19T14:32:37;17.10;;;7.30;;
59649;SDS011;46162;57.568;25.814;2023-09-19T14:35:08;10.25;;;6.90;;
59649;SDS011;46162;57.568;25.814;2023-09-19T14:37:37;15.77;;;7.47;;
59649;SDS011;46162;57.568;25.814;2023-09-19T14:40:07;16.00;;;7.93;;
59649;SDS011;46162;57.568;25.814;2023-09-19T14:42:38;10.45;;;6.90;;
59649;SDS011;46162;57.568;25.814;2023-09-19T14:45:08;17.00;;;7.60;;
59649;SDS011;46162;57.568;25.814;2023-09-19T14:47:38;12.93;;;7.72;;
59649;SDS011;46162;57.568;25.814;2023-09-19T14:50:09;14.32;;;7.57;;
59649;SDS011;46162;57.568;25.814;2023-09-19T14:52:39;11.07;;;6.95;;
59649;SDS011;46162;57.568;25.814;2023-09-19T14:55:08;13.50;;;7.40;;
59649;SDS011;46162;57.568;25.814;2023-09-19T14:57:41;11.95;;;7.82;;
59649;SDS011;46162;57.568;25.814;2023-09-19T15:00:13;14.43;;;7.80;;
59649;SDS011;46162;57.568;25.814;2023-09-19T15:02:44;17.08;;;8.63;;
59649;SDS011;46162;57.568;25.814;2023-09-19T15:05:17;17.65;;;7.85;;
59649;SDS011;46162;57.568;25.814;2023-09-19T15:07:46;13.40;;;7.63;;
59649;SDS011;46162;57.568;25.814;2023-09-19T15:10:15;12.52;;;7.43;;
59649;SDS011;46162;57.568;25.814;2023-09-19T15:12:45;10.90;;;7.65;;